createdAt,value
2022-12-23T00:01:25.687Z,112.90
2022-12-23T00:03:58.423Z,104.20
2022-12-23T00:06:27.485Z,109.50
2022-12-23T00:08:58.941Z,116.10
2022-12-23T00:11:29.033Z,106.00
2022-12-23T00:14:21.235Z,106.70
2022-12-23T00:16:51.174Z,102.50
2022-12-23T00:21:48.771Z,94.90
2022-12-23T00:24:17.294Z,104.90
2022-12-23T00:26:45.581Z,105.40
2022-12-23T00:29:13.949Z,104.40
2022-12-23T00:31:42.096Z,108.70
2022-12-23T00:34:12.299Z,102.50
2022-12-23T00:36:41.053Z,106.60
2022-12-23T00:39:31.398Z,107.00
2022-12-23T00:42:17.948Z,109.90
2022-12-23T00:44:46.180Z,102.80
2022-12-23T00:47:34.171Z,105.10
2022-12-23T00:50:02.307Z,105.60
2022-12-23T00:52:30.645Z,108.00
2022-12-23T00:54:58.751Z,98.00
2022-12-23T00:57:27.099Z,106.30
2022-12-23T00:59:55.095Z,102.40
2022-12-23T01:02:41.765Z,99.60
2022-12-23T01:05:29.859Z,98.20
2022-12-23T01:07:58.283Z,102.50
2022-12-23T01:10:26.486Z,101.10
2022-12-23T01:12:54.762Z,98.90
2022-12-23T01:15:23.513Z,102.60
2022-12-23T01:17:51.827Z,100.20
2022-12-23T01:20:20.507Z,104.70
2022-12-23T01:22:48.611Z,99.80
2022-12-23T01:25:18.357Z,100.70
2022-12-23T01:27:46.459Z,100.70
2022-12-23T01:30:14.674Z,102.30
2022-12-23T01:32:42.917Z,99.80
2022-12-23T01:35:11.120Z,101.60
2022-12-23T01:37:39.355Z,101.40
2022-12-23T01:40:09.334Z,100.10
2022-12-23T01:42:47.560Z,91.40
2022-12-23T01:45:23.843Z,96.10
2022-12-23T01:48:00.622Z,99.50
2022-12-23T01:50:38.233Z,90.80
2022-12-23T01:53:15.168Z,99.90
2022-12-23T01:55:51.089Z,95.20
2022-12-23T01:58:32.285Z,88.50
2022-12-23T02:01:20.616Z,97.80
2022-12-23T02:03:50.810Z,95.10
2022-12-23T02:06:42.474Z,95.80
2022-12-23T02:09:21.783Z,97.80
2022-12-23T02:14:57.885Z,91.10
2022-12-23T02:17:45.856Z,98.40
2022-12-23T02:20:23.397Z,99.70
2022-12-23T02:23:13.536Z,99.00
2022-12-23T02:26:00.734Z,97.80
2022-12-23T02:28:53.500Z,97.50
2022-12-23T02:31:42.933Z,102.80
2022-12-23T02:34:17.037Z,97.70
2022-12-23T02:36:57.683Z,96.20
2022-12-23T02:39:54.335Z,96.30
2022-12-23T02:42:37.417Z,96.70
2022-12-23T02:45:10.205Z,93.40
2022-12-23T02:47:44.675Z,90.40
2022-12-23T02:50:19.451Z,96.10
2022-12-23T02:52:49.892Z,91.60
2022-12-23T02:55:26.342Z,92.20
2022-12-23T02:57:57.793Z,92.30
2022-12-23T03:00:25.833Z,92.70
2022-12-23T03:02:54.094Z,94.20
2022-12-23T03:05:50.120Z,99.20
2022-12-23T03:08:26.731Z,91.10
2022-12-23T03:11:08.724Z,89.20
2022-12-23T03:14:15.005Z,88.00
2022-12-23T03:16:45.950Z,89.70
2022-12-23T03:19:32.646Z,91.90
2022-12-23T03:22:19.691Z,90.70
2022-12-23T03:24:52.764Z,93.20
2022-12-23T03:27:41.786Z,96.10
2022-12-23T03:30:17.243Z,102.00
2022-12-23T03:33:01.145Z,100.10
2022-12-23T03:35:43.966Z,107.70
2022-12-23T03:38:15.033Z,88.60
2022-12-23T03:40:47.644Z,98.90
2022-12-23T03:43:23.873Z,98.70
2022-12-23T03:46:01.057Z,103.00
2022-12-23T03:48:48.385Z,105.00
2022-12-23T03:51:39.797Z,96.30
2022-12-23T03:54:18.086Z,93.70
2022-12-23T03:56:57.325Z,108.40
2022-12-23T04:02:20.581Z,102.60
2022-12-23T04:04:48.982Z,96.80
2022-12-23T04:07:22.667Z,198.40
2022-12-23T04:09:54.873Z,120.50
2022-12-23T04:12:25.121Z,110.40
2022-12-23T04:14:53.692Z,110.70
2022-12-23T04:17:22.039Z,137.70
2022-12-23T04:19:52.198Z,119.60
2022-12-23T04:22:20.231Z,107.80
2022-12-23T04:24:48.306Z,103.90
2022-12-23T04:27:16.708Z,103.00
2022-12-23T04:29:44.971Z,105.60
2022-12-23T04:32:13.027Z,117.80
2022-12-23T04:34:41.082Z,115.20
2022-12-23T04:37:10.542Z,113.30
2022-12-23T04:39:38.702Z,104.20
2022-12-23T04:42:06.830Z,101.50
2022-12-23T04:44:34.917Z,96.20
2022-12-23T04:47:03.223Z,110.30
2022-12-23T04:49:32.154Z,100.70
2022-12-23T04:52:00.606Z,96.60
2022-12-23T04:54:28.780Z,93.70
2022-12-23T04:56:57.105Z,97.80
2022-12-23T04:59:25.103Z,97.80
2022-12-23T05:01:53.400Z,104.30
2022-12-23T05:04:21.582Z,121.60
2022-12-23T05:06:50.832Z,110.80
2022-12-23T05:09:19.101Z,112.90
2022-12-23T05:11:47.266Z,112.30
2022-12-23T05:14:15.430Z,112.00
2022-12-23T05:16:43.624Z,116.60
2022-12-23T05:19:12.208Z,100.50
2022-12-23T05:21:40.378Z,122.60
2022-12-23T05:24:08.869Z,121.70
2022-12-23T05:26:37.170Z,115.70
2022-12-23T05:29:06.234Z,114.00
2022-12-23T05:31:34.418Z,114.10
2022-12-23T05:34:06.562Z,114.70
2022-12-23T05:36:35.243Z,119.50
2022-12-23T05:39:03.623Z,120.00
2022-12-23T05:41:31.998Z,122.20
2022-12-23T05:44:00.098Z,121.40
2022-12-23T05:46:28.139Z,123.60
2022-12-23T05:48:56.303Z,116.50
2022-12-23T05:51:24.656Z,118.40
2022-12-23T05:53:52.991Z,112.20
2022-12-23T05:56:21.028Z,109.80
2022-12-23T05:58:49.181Z,116.20
2022-12-23T06:01:17.231Z,114.10
2022-12-23T06:03:45.331Z,111.20
2022-12-23T06:06:14.269Z,107.90
2022-12-23T06:08:42.285Z,102.30
2022-12-23T06:11:10.473Z,98.30
2022-12-23T06:13:38.762Z,102.60
2022-12-23T06:16:07.332Z,109.00
2022-12-23T06:18:35.378Z,115.90
2022-12-23T06:21:03.885Z,108.70
2022-12-23T06:23:32.065Z,95.70
2022-12-23T06:26:02.260Z,98.00
2022-12-23T06:28:30.496Z,101.50
2022-12-23T06:30:58.763Z,107.00
2022-12-23T06:33:26.811Z,106.30
2022-12-23T06:35:55.084Z,111.30
2022-12-23T06:38:23.273Z,115.20
2022-12-23T06:40:51.350Z,111.50
2022-12-23T06:43:19.520Z,114.40
2022-12-23T06:45:48.809Z,99.60
2022-12-23T06:48:17.555Z,115.60
2022-12-23T06:50:46.600Z,111.10
2022-12-23T06:53:14.760Z,106.40
2022-12-23T06:55:43.323Z,106.00
2022-12-23T06:58:11.427Z,101.90
2022-12-23T07:00:39.672Z,101.50
2022-12-23T07:03:07.832Z,102.40
2022-12-23T07:05:37.541Z,102.70
2022-12-23T07:08:06.292Z,100.70
2022-12-23T07:10:34.745Z,102.90
2022-12-23T07:13:02.921Z,104.70
2022-12-23T07:15:31.060Z,98.60
2022-12-23T07:17:59.244Z,99.00
2022-12-23T07:20:27.403Z,95.50
2022-12-23T07:22:57.230Z,94.10
2022-12-23T07:25:25.267Z,118.60
2022-12-23T07:27:55.144Z,133.70
2022-12-23T07:30:23.680Z,121.30
2022-12-23T07:32:52.007Z,124.90
2022-12-23T07:35:20.422Z,122.00
2022-12-23T07:37:53.873Z,117.40
2022-12-23T07:40:23.599Z,118.30
2022-12-23T07:42:56.846Z,112.10
2022-12-23T07:45:27.603Z,125.60
2022-12-23T07:47:57.587Z,117.90
2022-12-23T07:50:27.104Z,119.30
2022-12-23T07:52:56.278Z,136.10
2022-12-23T07:55:24.552Z,115.00
2022-12-23T07:57:53.729Z,116.50
2022-12-23T08:00:22.334Z,112.00
2022-12-23T08:02:50.655Z,113.00
2022-12-23T08:05:19.103Z,118.30
2022-12-23T08:07:49.925Z,110.90
2022-12-23T08:10:18.096Z,118.00
2022-12-23T08:12:46.718Z,108.10
2022-12-23T08:15:15.067Z,113.20
2022-12-23T08:17:43.203Z,106.40
2022-12-23T08:20:12.014Z,120.50
2022-12-23T08:22:40.199Z,108.50
2022-12-23T08:25:08.888Z,106.30
2022-12-23T08:27:37.270Z,109.60
2022-12-23T08:30:06.453Z,105.80
2022-12-23T08:32:34.621Z,111.50
2022-12-23T08:35:02.712Z,104.80
2022-12-23T08:37:31.174Z,107.00
2022-12-23T08:39:59.352Z,105.90
2022-12-23T08:42:27.446Z,108.10
2022-12-23T08:44:55.586Z,105.00
2022-12-23T08:47:23.656Z,107.90
2022-12-23T08:49:51.730Z,112.50
2022-12-23T08:52:19.908Z,119.40
2022-12-23T08:54:48.094Z,114.80
2022-12-23T08:57:16.281Z,106.50
2022-12-23T08:59:44.520Z,110.60
2022-12-23T09:02:12.848Z,107.60
2022-12-23T09:04:41.093Z,105.50
2022-12-23T09:07:09.155Z,107.00
2022-12-23T09:09:38.744Z,99.20
2022-12-23T09:12:07.038Z,106.40
2022-12-23T09:14:35.276Z,104.90
2022-12-23T09:17:03.336Z,99.50
2022-12-23T09:19:31.544Z,101.90
2022-12-23T09:21:59.700Z,111.20
2022-12-23T09:24:27.811Z,104.20
2022-12-23T09:26:55.900Z,92.30
2022-12-23T09:29:23.914Z,95.50
2022-12-23T09:31:51.948Z,93.20
2022-12-23T09:34:20.175Z,95.60
2022-12-23T09:36:54.918Z,94.30
2022-12-23T09:39:24.412Z,93.20
2022-12-23T09:42:01.769Z,99.10
2022-12-23T09:44:55.366Z,104.90
2022-12-23T09:47:27.071Z,93.10
2022-12-23T09:50:01.000Z,86.80
2022-12-23T09:52:46.629Z,89.70
2022-12-23T09:55:15.944Z,85.50
2022-12-23T09:58:01.272Z,82.10
2022-12-23T10:00:39.030Z,89.20
2022-12-23T10:03:13.405Z,87.60
2022-12-23T10:05:59.405Z,91.40
2022-12-23T10:08:41.830Z,87.90
2022-12-23T10:11:16.495Z,84.50
2022-12-23T10:13:56.986Z,89.90
2022-12-23T10:16:32.498Z,86.90
2022-12-23T10:19:16.071Z,89.10
2022-12-23T10:21:56.417Z,87.20
2022-12-23T10:24:38.842Z,82.80
2022-12-23T10:27:24.438Z,80.70
2022-12-23T10:29:52.501Z,84.60
2022-12-23T10:32:27.253Z,86.60
2022-12-23T10:34:58.555Z,85.50
2022-12-23T10:37:45.261Z,82.80
2022-12-23T10:40:19.617Z,78.10
2022-12-23T10:42:50.834Z,82.70
2022-12-23T10:45:31.514Z,88.40
2022-12-23T10:48:21.064Z,82.20
2022-12-23T10:50:58.965Z,80.10
2022-12-23T10:53:46.081Z,80.90
2022-12-23T10:56:15.209Z,81.10
2022-12-23T10:58:46.847Z,75.70
2022-12-23T11:01:26.015Z,78.70
2022-12-23T11:04:02.614Z,84.10
2022-12-23T11:06:37.070Z,71.10
2022-12-23T11:09:11.744Z,82.20
2022-12-23T11:12:02.060Z,79.10
2022-12-23T11:14:41.747Z,74.00
2022-12-23T11:17:31.670Z,73.30
2022-12-23T11:20:20.362Z,69.60
2022-12-23T11:22:54.137Z,75.90
2022-12-23T11:25:32.089Z,83.30
2022-12-23T11:28:22.177Z,74.40
2022-12-23T11:30:57.245Z,76.20
2022-12-23T11:33:28.436Z,75.60
2022-12-23T11:36:14.412Z,61.40
2022-12-23T11:38:51.900Z,72.70
2022-12-23T11:41:27.860Z,80.00
2022-12-23T11:44:03.724Z,77.40
2022-12-23T11:46:33.615Z,76.50
2022-12-23T11:49:14.011Z,73.10
2022-12-23T11:51:48.639Z,78.80
2022-12-23T11:54:19.951Z,71.90
2022-12-23T11:56:51.680Z,74.30
2022-12-23T11:59:41.420Z,75.20
2022-12-23T12:02:19.104Z,72.00
2022-12-23T12:05:02.711Z,75.00
2022-12-23T12:07:31.632Z,74.10
2022-12-23T12:10:01.513Z,73.10
2022-12-23T12:12:30.473Z,72.50
2022-12-23T12:15:00.545Z,77.20
2022-12-23T12:17:37.890Z,75.20
2022-12-23T12:20:06.593Z,72.20
2022-12-23T12:22:54.739Z,73.60
2022-12-23T12:25:53.745Z,79.20
2022-12-23T12:28:26.316Z,72.00
2022-12-23T12:31:03.370Z,71.40
2022-12-23T12:33:39.808Z,72.30
2022-12-23T12:36:33.282Z,75.60
2022-12-23T12:39:01.364Z,78.90
2022-12-23T12:41:37.015Z,69.90
2022-12-23T12:44:22.155Z,76.80
2022-12-23T12:46:56.095Z,74.30
2022-12-23T12:49:35.899Z,80.20
2022-12-23T12:52:12.009Z,81.30
2022-12-23T12:54:56.549Z,71.80
2022-12-23T12:57:25.201Z,75.40
2022-12-23T13:00:03.567Z,72.80
2022-12-23T13:02:43.974Z,71.20
2022-12-23T13:05:41.594Z,75.60
2022-12-23T13:08:43.193Z,73.90
2022-12-23T13:11:34.470Z,73.40
2022-12-23T13:14:22.770Z,69.00
2022-12-23T13:17:09.889Z,74.60
2022-12-23T13:19:56.874Z,67.20
2022-12-23T13:22:32.631Z,69.50
2022-12-23T13:25:05.550Z,71.70
2022-12-23T13:28:15.939Z,67.20
2022-12-23T13:30:51.563Z,70.50
2022-12-23T13:33:39.476Z,70.70
2022-12-23T13:36:40.110Z,68.80
2022-12-23T13:39:32.711Z,71.00
2022-12-23T13:42:05.963Z,71.20
2022-12-23T13:44:35.478Z,68.70
2022-12-23T13:47:22.392Z,68.90
2022-12-23T13:49:50.370Z,70.20
2022-12-23T13:52:32.990Z,67.30
2022-12-23T13:55:26.147Z,73.40
2022-12-23T13:58:13.633Z,66.60
2022-12-23T14:00:41.727Z,76.10
2022-12-23T14:03:09.927Z,72.60
2022-12-23T14:05:38.961Z,72.10
2022-12-23T14:10:59.120Z,69.80
2022-12-23T14:13:30.713Z,73.60
2022-12-23T14:16:40.209Z,68.40
2022-12-23T14:19:30.121Z,74.50
2022-12-23T14:22:19.868Z,68.30
2022-12-23T14:24:59.824Z,62.70
2022-12-23T14:27:42.771Z,69.60
2022-12-23T14:30:36.410Z,66.60
2022-12-23T14:33:38.181Z,70.70
2022-12-23T14:36:26.931Z,73.30
2022-12-23T14:39:13.530Z,73.40
2022-12-23T14:41:47.742Z,72.00
2022-12-23T14:44:43.792Z,71.30
2022-12-23T14:47:35.702Z,74.70
2022-12-23T14:50:34.376Z,78.10
2022-12-23T14:53:24.985Z,68.00
2022-12-23T14:56:19.039Z,75.50
2022-12-23T14:59:24.196Z,74.00
2022-12-23T15:02:14.776Z,73.30
2022-12-23T15:04:50.978Z,79.70
2022-12-23T15:07:21.981Z,72.70
2022-12-23T15:10:02.788Z,73.10
2022-12-23T15:12:35.963Z,71.50
2022-12-23T15:15:21.554Z,77.60
2022-12-23T15:18:12.112Z,65.60
2022-12-23T15:20:40.240Z,65.40
2022-12-23T15:23:10.202Z,71.30
2022-12-23T15:25:46.095Z,72.60
2022-12-23T15:28:19.734Z,71.00
2022-12-23T15:30:52.381Z,74.40
2022-12-23T15:36:14.633Z,71.00
2022-12-23T15:38:42.681Z,80.80
2022-12-23T15:41:18.794Z,77.90
2022-12-23T15:43:47.009Z,74.00
2022-12-23T15:46:29.925Z,80.00
2022-12-23T15:48:59.042Z,69.50
2022-12-23T15:52:05.914Z,67.90
2022-12-23T15:54:35.224Z,72.30
2022-12-23T15:57:04.633Z,71.70
2022-12-23T15:59:37.491Z,70.30
2022-12-23T16:05:45.711Z,72.60
2022-12-23T16:08:15.354Z,77.10
2022-12-23T16:11:11.864Z,71.10
2022-12-23T16:13:46.675Z,73.80
2022-12-23T16:16:38.123Z,72.70
2022-12-23T16:19:26.775Z,73.70
2022-12-23T16:21:55.152Z,67.10
2022-12-23T16:24:23.190Z,65.70
2022-12-23T16:26:54.519Z,59.60
2022-12-23T16:29:22.630Z,61.00
2022-12-23T16:31:57.435Z,57.00
2022-12-23T16:34:31.583Z,58.10
2022-12-23T16:36:59.843Z,63.10
2022-12-23T16:39:28.116Z,55.40
2022-12-23T16:41:56.290Z,58.40
2022-12-23T16:44:24.316Z,56.80
2022-12-23T16:46:52.452Z,58.40
2022-12-23T16:49:27.909Z,58.50
2022-12-23T16:51:56.268Z,57.30
2022-12-23T16:54:24.520Z,59.00
2022-12-23T16:56:52.604Z,59.40
2022-12-23T16:59:21.189Z,56.60
2022-12-23T17:01:49.384Z,61.50
2022-12-23T17:04:17.552Z,62.30
2022-12-23T17:06:46.616Z,65.60
2022-12-23T17:11:53.268Z,57.50
2022-12-23T17:14:24.321Z,68.60
2022-12-23T17:16:53.118Z,66.20
2022-12-23T17:19:27.774Z,63.40
2022-12-23T17:22:03.051Z,70.80
2022-12-23T17:24:31.607Z,68.90
2022-12-23T17:26:59.663Z,73.60
2022-12-23T17:29:28.463Z,64.20
2022-12-23T17:31:56.762Z,73.30
2022-12-23T17:34:24.992Z,69.40
2022-12-23T17:36:53.263Z,68.10
2022-12-23T17:39:22.356Z,77.90
2022-12-23T17:41:50.528Z,76.50
2022-12-23T17:44:18.932Z,65.60
2022-12-23T17:46:47.567Z,73.50
2022-12-23T17:49:15.740Z,77.50
2022-12-23T17:51:44.256Z,73.00
2022-12-23T17:54:22.957Z,76.10
2022-12-23T17:56:52.713Z,73.20
2022-12-23T17:59:21.947Z,80.40
2022-12-23T18:01:50.696Z,72.30
2022-12-23T18:04:19.133Z,78.70
2022-12-23T18:06:47.327Z,78.00
2022-12-23T18:09:16.882Z,78.00
2022-12-23T18:11:48.134Z,75.30
2022-12-23T18:14:22.009Z,73.50
2022-12-23T18:16:50.323Z,75.90
2022-12-23T18:19:20.861Z,71.40
2022-12-23T18:21:50.678Z,77.80
2022-12-23T18:24:18.964Z,78.30
2022-12-23T18:26:47.824Z,72.30
2022-12-23T18:29:15.928Z,75.70
2022-12-23T18:31:51.391Z,79.50
2022-12-23T18:34:21.317Z,75.00
2022-12-23T18:36:51.963Z,77.60
2022-12-23T18:39:21.112Z,73.40
2022-12-23T18:41:49.280Z,76.40
2022-12-23T18:44:22.957Z,79.80
2022-12-23T18:46:51.062Z,69.40
2022-12-23T18:49:19.356Z,74.60
2022-12-23T18:51:47.671Z,76.60
2022-12-23T18:54:16.678Z,80.70
2022-12-23T18:56:45.301Z,78.90
2022-12-23T18:59:22.816Z,75.20
2022-12-23T19:01:52.641Z,82.10
2022-12-23T19:04:20.893Z,83.00
2022-12-23T19:06:49.020Z,79.90
2022-12-23T19:09:20.285Z,74.70
2022-12-23T19:11:50.246Z,87.90
2022-12-23T19:14:18.602Z,87.50
2022-12-23T19:16:51.501Z,82.70
2022-12-23T19:19:21.906Z,80.10
2022-12-23T19:21:50.071Z,79.70
2022-12-23T19:24:18.235Z,75.60
2022-12-23T19:26:46.584Z,77.90
2022-12-23T19:29:14.762Z,80.80
2022-12-23T19:31:43.005Z,77.90
2022-12-23T19:34:14.885Z,78.10
2022-12-23T19:36:44.668Z,78.30
2022-12-23T19:39:16.824Z,80.80
2022-12-23T19:41:45.909Z,73.30
2022-12-23T19:44:14.755Z,64.30
2022-12-23T19:46:42.990Z,72.20
2022-12-23T19:49:17.479Z,77.20
2022-12-23T19:51:49.025Z,75.30
2022-12-23T19:54:17.746Z,73.30
2022-12-23T19:56:45.870Z,69.80
2022-12-23T19:59:14.141Z,75.90
2022-12-23T20:01:42.382Z,73.20
2022-12-23T20:04:11.099Z,81.20
2022-12-23T20:06:41.109Z,78.00
2022-12-23T20:09:12.614Z,75.90
2022-12-23T20:11:43.900Z,74.40
2022-12-23T20:14:14.170Z,73.90
2022-12-23T20:16:42.460Z,68.90
2022-12-23T20:19:11.437Z,75.90
2022-12-23T20:21:39.571Z,72.00
2022-12-23T20:24:08.354Z,78.40
2022-12-23T20:26:36.831Z,83.40
2022-12-23T20:29:05.556Z,81.60
2022-12-23T20:31:37.611Z,73.50
2022-12-23T20:34:08.325Z,81.60
2022-12-23T20:36:36.985Z,79.90
2022-12-23T20:39:06.282Z,81.80
2022-12-23T20:41:34.674Z,86.70
2022-12-23T20:44:34.017Z,85.80
2022-12-23T20:46:51.729Z,79.30
2022-12-23T20:49:19.944Z,76.40
2022-12-23T20:51:47.965Z,81.90
2022-12-23T20:54:16.123Z,70.60
2022-12-23T20:56:44.305Z,73.90
2022-12-23T20:59:12.688Z,79.10
2022-12-23T21:01:41.710Z,79.50
2022-12-23T21:04:13.030Z,85.60
2022-12-23T21:06:41.547Z,83.20
2022-12-23T21:09:12.380Z,80.20
2022-12-23T21:11:43.438Z,80.60
2022-12-23T21:14:12.925Z,81.50
2022-12-23T21:19:15.425Z,74.90
2022-12-23T21:21:44.107Z,79.90
2022-12-23T21:24:12.783Z,83.20
2022-12-23T21:26:41.212Z,81.00
2022-12-23T21:29:11.243Z,78.70
2022-12-23T21:31:41.209Z,86.30
2022-12-23T21:34:14.472Z,83.70
2022-12-23T21:36:43.094Z,79.90
2022-12-23T21:39:15.693Z,83.30
2022-12-23T21:41:44.470Z,72.00
2022-12-23T21:44:14.937Z,85.10
2022-12-23T21:46:43.515Z,78.50
2022-12-23T21:49:11.819Z,78.20
2022-12-23T21:51:41.553Z,84.80
2022-12-23T21:54:11.500Z,85.90
2022-12-23T21:56:41.399Z,73.10
2022-12-23T21:59:14.841Z,83.50
2022-12-23T22:01:44.068Z,78.80
2022-12-23T22:04:13.035Z,73.20
2022-12-23T22:06:46.227Z,86.90
2022-12-23T22:09:17.905Z,87.90
2022-12-23T22:11:47.131Z,82.80
2022-12-23T22:14:17.561Z,85.10
2022-12-23T22:16:45.888Z,89.90
2022-12-23T22:19:14.692Z,77.50
2022-12-23T22:21:42.975Z,88.60
2022-12-23T22:24:11.573Z,79.50
2022-12-23T22:26:40.464Z,80.20
2022-12-23T22:29:08.576Z,81.50
2022-12-23T22:31:47.100Z,75.80
2022-12-23T22:34:18.402Z,86.20
2022-12-23T22:36:47.477Z,91.30
2022-12-23T22:39:21.206Z,87.90
2022-12-23T22:41:51.559Z,92.70
2022-12-23T22:44:21.261Z,92.60
2022-12-23T22:46:49.494Z,93.90
2022-12-23T22:49:18.122Z,94.20
2022-12-23T22:51:46.356Z,88.60
2022-12-23T22:54:14.737Z,88.00
2022-12-23T22:56:43.111Z,85.40
2022-12-23T22:59:23.565Z,95.60
2022-12-23T23:01:53.235Z,93.80
2022-12-23T23:04:21.570Z,88.20
2022-12-23T23:06:49.946Z,95.30
2022-12-23T23:09:20.666Z,92.90
2022-12-23T23:11:50.387Z,86.30
2022-12-23T23:14:18.937Z,96.60
2022-12-23T23:16:47.433Z,81.60
2022-12-23T23:19:17.145Z,86.10
2022-12-23T23:21:45.342Z,84.50
2022-12-23T23:24:13.648Z,89.10
2022-12-23T23:26:41.766Z,83.40
2022-12-23T23:29:09.874Z,74.30
2022-12-23T23:31:42.990Z,82.60
2022-12-23T23:34:13.021Z,82.70
2022-12-23T23:36:41.662Z,83.90
2022-12-23T23:39:12.351Z,83.80
2022-12-23T23:41:41.589Z,89.40
2022-12-23T23:44:10.241Z,80.50
2022-12-23T23:46:39.237Z,91.00
2022-12-23T23:49:07.369Z,88.40
2022-12-23T23:51:35.453Z,90.80
2022-12-23T23:54:03.643Z,91.90
2022-12-23T23:56:37.877Z,87.20
2022-12-23T23:59:09.019Z,87.40
